Isabel Y Andres — EA2246 — position and weather

sailwx.info

Track history (hours):
 
Tides and Currents Weather Stations Pressure Air Temp Water Temp Dewpoint Dewpoint Depression Visibility Wind Speed Wind Dir Waves Ship Positions

Isabel Y Andres

Last reported at 2017-Dec-07 16:29 UTC. Time now 2017-Dec-11 15:24 UTC.
Position N 37°49' W 000°45'.

Length 22 m.

Type: Other ship. MMSI: 224088940.

Date/timePositionNaut miles runAvg speedWind from/ knotsBaromVisibWave heightAir tempDewpointWater temp
2017-Dec-07 16:29N 37°49' W 000°45'0 0.2
2017-Dec-07 16:00N 37°49' W 000°45'3 6.1
2017-Dec-07 15:30N 37°47' W 000°43'510.2
2017-Dec-07 15:00N 37°43' W 000°38'510.5
2017-Dec-07 14:30N 37°39' W 000°34'6 0.7
2017-Dec-07 05:48N 37°36' W 000°28'310.1
2017-Dec-07 05:30N 37°38' W 000°31'510.0
2017-Dec-07 05:00N 37°42' W 000°35'5 9.9
2017-Dec-07 04:30N 37°45' W 000°40'510.5
2017-Dec-07 04:00N 37°49' W 000°44'  
2017-Dec-04 05:43N 37°37' W 000°29'210.0
2017-Dec-04 05:30N 37°39' W 000°32'4 8.4
2017-Dec-04 05:00N 37°42' W 000°35'5 9.8
2017-Dec-04 04:30N 37°45' W 000°40'510.0
2017-Dec-04 04:00N 37°49' W 000°44'  
2017-Dec-01 16:22N 37°49' W 000°45'0 0.0
2017-Dec-01 16:00N 37°49' W 000°45'3 6.7
2017-Dec-01 15:30N 37°47' W 000°43'510.1
2017-Dec-01 15:00N 37°43' W 000°38'610.8
2017-Dec-01 14:30N 37°39' W 000°33'5 0.6
2017-Dec-01 05:47N 37°36' W 000°28'310.2
2017-Dec-01 05:30N 37°38' W 000°31'510.1
2017-Dec-01 05:00N 37°42' W 000°35'510.0
2017-Dec-01 04:30N 37°45' W 000°40'510.2
2017-Dec-01 04:00N 37°49' W 000°45'1 0.0
2017-Nov-29 16:17N 37°49' W 000°45'0 0.4
2017-Nov-29 16:00N 37°49' W 000°45'5 9.2
2017-Nov-29 15:30N 37°46' W 000°42'510.2
2017-Nov-29 15:00N 37°42' W 000°37'510.5
2017-Nov-29 14:30N 37°38' W 000°33'6 0.7
2017-Nov-29 06:04N 37°35' W 000°26'5 9.5
2017-Nov-29 05:34N 37°38' W 000°31'1 9.6
2017-Nov-29 05:28N 37°39' W 000°32'4 9.5
2017-Nov-29 05:00N 37°42' W 000°36'5 9.5
2017-Nov-29 04:30N 37°45' W 000°40'510.3
2017-Nov-29 04:00N 37°49' W 000°45'1 0.1
2017-Nov-28 16:22N 37°49' W 000°45'2 4.3
2017-Nov-28 16:00N 37°48' W 000°44'1010.2
2017-Nov-28 15:00N 37°41' W 000°35'510.3
2017-Nov-28 14:30N 37°37' W 000°30'2 0.2
2017-Nov-28 05:52N 37°36' W 000°28'3 9.7
2017-Nov-28 05:30N 37°39' W 000°31'10 9.6
2017-Nov-28 04:30N 37°45' W 000°40'5 9.9
2017-Nov-28 04:00N 37°49' W 000°45'  
Track history (hours):
 
Tides and Currents Weather Stations Pressure Air Temp Water Temp Dewpoint Dewpoint Depression Visibility Wind Speed Wind Dir Waves Ship Positions

Isabel Y Andres

Last reported at 2017-Dec-07 16:29 UTC. Time now 2017-Dec-11 15:24 UTC.
Position N 37°49' W 000°45'.

Length 22 m.

Type: Other ship. MMSI: 224088940.

Date/timePositionNaut miles runAvg speedWind from/ knotsBaromVisibWave heightAir tempDewpointWater temp
2017-Dec-07 16:29N 37°49' W 000°45'0 0.2
2017-Dec-07 16:00N 37°49' W 000°45'3 6.1
2017-Dec-07 15:30N 37°47' W 000°43'510.2
2017-Dec-07 15:00N 37°43' W 000°38'510.5
2017-Dec-07 14:30N 37°39' W 000°34'6 0.7
2017-Dec-07 05:48N 37°36' W 000°28'310.1
2017-Dec-07 05:30N 37°38' W 000°31'510.0
2017-Dec-07 05:00N 37°42' W 000°35'5 9.9
2017-Dec-07 04:30N 37°45' W 000°40'510.5
2017-Dec-07 04:00N 37°49' W 000°44'  
2017-Dec-04 05:43N 37°37' W 000°29'210.0
2017-Dec-04 05:30N 37°39' W 000°32'4 8.4
2017-Dec-04 05:00N 37°42' W 000°35'5 9.8
2017-Dec-04 04:30N 37°45' W 000°40'510.0
2017-Dec-04 04:00N 37°49' W 000°44'  
2017-Dec-01 16:22N 37°49' W 000°45'0 0.0
2017-Dec-01 16:00N 37°49' W 000°45'3 6.7
2017-Dec-01 15:30N 37°47' W 000°43'510.1
2017-Dec-01 15:00N 37°43' W 000°38'610.8
2017-Dec-01 14:30N 37°39' W 000°33'5 0.6
2017-Dec-01 05:47N 37°36' W 000°28'310.2
2017-Dec-01 05:30N 37°38' W 000°31'510.1
2017-Dec-01 05:00N 37°42' W 000°35'510.0
2017-Dec-01 04:30N 37°45' W 000°40'510.2
2017-Dec-01 04:00N 37°49' W 000°45'1 0.0
2017-Nov-29 16:17N 37°49' W 000°45'0 0.4
2017-Nov-29 16:00N 37°49' W 000°45'5 9.2
2017-Nov-29 15:30N 37°46' W 000°42'510.2
2017-Nov-29 15:00N 37°42' W 000°37'510.5
2017-Nov-29 14:30N 37°38' W 000°33'6 0.7
2017-Nov-29 06:04N 37°35' W 000°26'5 9.5
2017-Nov-29 05:34N 37°38' W 000°31'1 9.6
2017-Nov-29 05:28N 37°39' W 000°32'4 9.5
2017-Nov-29 05:00N 37°42' W 000°36'5 9.5
2017-Nov-29 04:30N 37°45' W 000°40'510.3
2017-Nov-29 04:00N 37°49' W 000°45'1 0.1
2017-Nov-28 16:22N 37°49' W 000°45'2 4.3
2017-Nov-28 16:00N 37°48' W 000°44'1010.2
2017-Nov-28 15:00N 37°41' W 000°35'510.3
2017-Nov-28 14:30N 37°37' W 000°30'2 0.2
2017-Nov-28 05:52N 37°36' W 000°28'3 9.7
2017-Nov-28 05:30N 37°39' W 000°31'10 9.6
2017-Nov-28 04:30N 37°45' W 000°40'5 9.9
2017-Nov-28 04:00N 37°49' W 000°45'  

Dump ship's entire track history